Latest Weather Observations for Tibooburra Airport

IDN60801

Issued at 11:05 am EDT Saturday 25 October 2014 (issued every 30 minutes, with the page automatically refreshed every 10 minutes)

About weather observations | Map of weather stations | Latest weather observations for NSW | Other Formats
Station Details ID: 046126 Name: TIBOOBURRA AIRPORT Lat: -29.44 Lon: 142.06 Height: 176.4 m
Data from the previous 72 hours. | See also: Recent months for locations in New South Wales
Date/Time
EDT
Temp
°C
App
Temp
°C
Dew
Point
Rel
Hum
%
Delta-T
°C
Wind Press
QNH
hPa
Press
MSL
hPa
Rain
since 9 am
mm
Dir
 
Spd
km/h
Gust
km/h
Spd
kts
Gust
kts
25/11:00am 37.3 30.5 0.6 10 18.7 N 26 32 14 17 1016.8 1016.1 0.0
25/10:30am 36.8 30.1 1.5 11 18.2 N 26 35 14 19 1016.8 1016.1 0.0
25/10:00am 35.1 28.8 1.5 12 17.1 N 24 32 13 17 1016.9 1016.2 0.0
25/09:30am 33.2 27.7 2.1 14 15.8 N 20 30 11 16 1016.9 1016.2 0.0
25/09:00am 31.0 26.1 2.3 16 14.4 N 17 22 9 12 1016.8 1016.1 0.0
25/08:30am 30.0 24.6 2.3 17 13.9 N 20 24 11 13 1016.6 1015.9 0.0
25/08:00am 29.0 24.1 2.3 18 13.3 N 17 20 9 11 1016.3 1015.6 0.0
25/07:30am 27.8 22.5 2.1 19 12.6 N 19 22 10 12 1015.9 1015.3 0.0
25/07:00am 27.6 22.4 2.6 20 12.4 N 19 20 10 11 1015.6 1015.0 0.0
25/06:30am 27.2 22.3 2.3 20 12.2 N 17 20 9 11 1015.2 1014.6 0.0
25/06:00am 27.4 22.6 2.5 20 12.3 N 17 19 9 10 1015.0 1014.4 0.0
25/05:30am 27.8 23.4 2.8 20 12.4 N 15 17 8 9 1014.9 1014.3 0.0
25/05:00am 28.7 24.3 2.8 19 13.0 NNE 15 17 8 9 1014.7 1014.1 0.0
25/04:30am 28.9 24.9 3.0 19 13.0 N 13 17 7 9 1014.7 1014.1 0.0
25/04:00am 29.3 25.2 2.5 18 13.4 N 13 15 7 8 1014.7 1014.1 0.0
25/03:30am 30.5 26.5 2.7 17 14.1 NNE 13 15 7 8 1014.8 1014.2 0.0
25/03:00am 30.4 26.0 2.6 17 14.0 NNE 15 17 8 9 1015.1 1014.5 0.0
25/02:30am 30.7 28.4 2.9 17 14.1 NE 4 7 2 4 1015.3 1014.7 0.0
25/02:00am 29.8 26.6 2.9 18 13.6 ENE 9 13 5 7 1015.7 1015.1 0.0
25/01:30am 29.7 26.1 2.9 18 13.5 W 11 13 6 7 1015.9 1015.3 0.0
25/01:00am 30.3 25.9 2.5 17 14.0 W 15 15 8 8 1016.0 1015.4 0.0
25/12:30am 30.7 27.5 2.9 17 14.1 WSW 9 11 5 6 1016.1 1015.5 0.0
25/12:00am 31.5 27.5 2.7 16 14.6 SSW 13 15 7 8 1016.0 1015.4 0.0
 
Date/Time
EDT
Temp
°C
App
Temp
°C
Dew
Point
Rel
Hum
%
Delta-T
°C
Wind Press
QNH
hPa
Press
MSL
hPa
Rain
since 9 am
mm
Dir
 
Spd
km/h
Gust
km/h
Spd
kts
Gust
kts
24/11:30pm 33.4 28.5 2.3 14 15.9 W 17 17 9 9 1016.3 1015.6 0.0
24/11:00pm 32.2 28.5 2.3 15 15.2 W 11 15 6 8 1016.3 1015.6 0.0
24/10:30pm 33.6 29.0 1.4 13 16.2 SW 15 19 8 10 1016.0 1015.4 0.0
24/10:00pm 34.4 31.4 2.0 13 16.6 W 7 11 4 6 1016.1 1015.5 0.0
24/09:30pm 35.8 30.3 0.8 11 17.7 S 19 30 10 16 1015.5 1014.9 0.0
24/09:20pm 35.3 27.3 1.6 12 17.2 SW 33 52 18 28 1015.5 1014.9 0.0
24/09:00pm 33.9 30.1 1.6 13 16.4 WSW 11 15 6 8 1015.2 1014.6 0.0
24/08:30pm 34.4 30.1 0.9 12 16.9 WSW 13 13 7 7 1014.8 1014.2 0.0
24/08:00pm 35.7 31.2 -0.6 10 18.0 SW 13 15 7 8 1014.5 1013.9 0.0
24/07:30pm 36.7 31.5 0.1 10 18.4 W 17 24 9 13 1014.1 1013.5 0.0
24/07:00pm 37.5 31.8 0.7 10 18.8 W 20 26 11 14 1013.9 1013.3 0.0
24/06:30pm 38.0 32.2 -0.3 9 19.3 W 20 33 11 18 1013.6 1012.9 0.0
24/06:00pm 38.2 32.0 -0.2 9 19.4 WSW 22 30 12 16 1013.5 1012.8 0.0
24/05:30pm 38.7 32.2 0.2 9 19.7 W 24 37 13 20 1013.4 1012.7 0.0
24/05:00pm 38.7 32.2 0.2 9 19.7 W 24 37 13 20 1013.4 1012.7 0.0
24/04:30pm 38.9 32.0 0.3 9 19.8 WSW 26 35 14 19 1013.5 1012.8 0.0
24/04:00pm 38.9 32.0 0.3 9 19.8 WSW 26 39 14 21 1013.7 1013.1 0.0
24/03:30pm 39.1 33.4 0.5 9 19.8 WSW 20 30 11 16 1013.9 1013.3 0.0
24/03:00pm 38.8 33.3 0.3 9 19.7 WSW 19 28 10 15 1014.2 1013.6 0.0
24/02:48pm 39.1 31.9 0.5 9 19.8 WNW 28 46 15 25 1014.4 1013.8 0.0
24/02:30pm 38.7 31.4 0.2 9 19.7 W 28 39 15 21 1014.7 1014.1 0.0
24/02:00pm 39.0 30.6 -1.2 8 20.1 WNW 33 43 18 23 1015.0 1014.4 0.0
24/01:30pm 38.4 31.5 0.0 9 19.5 W 26 37 14 20 1015.4 1014.8 0.0
24/01:13pm 38.4 31.1 0.0 9 19.5 WNW 28 56 15 30 1015.5 1014.9 0.0
24/01:00pm 38.7 32.2 0.2 9 19.6 WNW 24 35 13 19 1015.7 1015.1 0.0
24/12:30pm 37.2 31.5 0.5 10 18.7 NW 20 24 11 13 1016.0 1015.4 0.0
24/12:00pm 36.6 32.2 0.1 10 18.4 N 13 20 7 11 1016.6 1015.9 0.0
24/11:30am 36.1 31.2 -0.3 10 18.2 N 15 22 8 12 1016.9 1016.2 0.0
24/11:00am 34.8 30.7 0.0 11 17.3 N 11 19 6 10 1017.2 1016.5 0.0
24/10:30am 33.4 29.2 -1.0 11 16.7 N 11 15 6 8 1017.2 1016.5 0.0
24/10:00am 32.6 28.8 -0.5 12 16.1 N 9 15 5 8 1017.2 1016.5 0.0
24/09:30am 31.9 28.6 0.1 13 15.5 NNE 7 11 4 6 1017.1 1016.4 0.0
24/09:00am 31.5 29.1 -0.2 13 15.3 NE 2 6 1 3 1016.8 1016.1 0.0
24/08:30am 30.1 28.2 0.6 15 14.4 CALM 0 0 0 0 1016.7 1016.0 0.0
24/08:00am 27.0 23.9 1.4 19 12.4 NNE 7 7 4 4 1016.5 1015.8 0.0
24/07:30am 25.4 21.8 0.8 20 11.6 NNE 9 11 5 6 1016.4 1015.7 0.0
24/07:00am 24.2 19.8 0.5 21 11.0 N 13 13 7 7 1016.3 1015.6 0.0
24/06:30am 23.9 19.9 0.3 21 10.9 NNE 11 13 6 7 1015.7 1015.1 0.0
24/06:00am 24.8 20.4 0.3 20 11.4 N 13 17 7 9 1015.4 1014.8 0.0
24/05:30am 24.1 19.3 0.4 21 11.0 N 15 17 8 9 1015.1 1014.5 0.0
24/05:00am 24.7 20.4 0.9 21 11.2 NNE 13 19 7 10 1015.0 1014.4 0.0
24/04:30am 23.7 19.0 0.7 22 10.7 SW 15 17 8 9 1014.6 1014.0 0.0
24/04:00am 24.5 19.4 0.8 21 11.1 SW 17 19 9 10 1014.5 1013.9 0.0
24/03:30am 24.5 19.5 1.4 22 11.0 SW 17 19 9 10 1014.6 1014.0 0.0
24/03:00am 25.0 20.3 1.2 21 11.3 WSW 15 17 8 9 1014.7 1014.1 0.0
24/02:30am 26.0 21.7 1.3 20 11.8 WSW 13 15 7 8 1015.0 1014.4 0.0
24/02:00am 27.2 22.1 0.8 18 12.6 WSW 17 20 9 11 1015.2 1014.6 0.0
24/01:30am 27.8 22.8 1.3 18 12.9 WSW 17 19 9 10 1015.3 1014.7 0.0
24/01:00am 28.5 23.3 0.3 16 13.5 W 17 20 9 11 1015.3 1014.7 0.0
24/12:30am 29.7 24.0 0.3 15 14.2 W 20 22 11 12 1015.3 1014.7 0.0
24/12:00am 29.6 24.4 0.2 15 14.1 WNW 17 19 9 10 1015.4 1014.8 0.0
 
Date/Time
EDT
Temp
°C
App
Temp
°C
Dew
Point
Rel
Hum
%
Delta-T
°C
Wind Press
QNH
hPa
Press
MSL
hPa
Rain
since 9 am
mm
Dir
 
Spd
km/h
Gust
km/h
Spd
kts
Gust
kts
23/11:30pm 29.7 25.3 0.3 15 14.2 WNW 13 15 7 8 1015.2 1014.6 0.0
23/11:00pm 30.6 25.9 1.0 15 14.5 WNW 15 15 8 8 1015.3 1014.7 0.0
23/10:30pm 31.0 26.2 0.4 14 14.9 WNW 15 17 8 9 1015.1 1014.5 0.0
23/10:00pm 31.1 26.3 0.5 14 15.0 WNW 15 17 8 9 1014.9 1014.3 0.0
23/09:30pm 32.0 26.8 0.2 13 15.6 NW 17 19 9 10 1014.6 1014.0 0.0
23/09:00pm 31.8 27.7 0.0 13 15.5 NW 11 13 6 7 1014.2 1013.6 0.0
23/08:30pm 32.6 28.1 -0.5 12 16.1 WNW 13 15 7 8 1013.8 1013.2 0.0
23/08:00pm 33.9 29.7 -0.7 11 16.9 WNW 11 13 6 7 1013.4 1012.7 0.0
23/07:30pm 35.9 31.4 -0.5 10 18.1 WNW 13 19 7 10 1013.2 1012.5 0.0
23/07:00pm 37.0 31.1 -1.1 9 18.9 WNW 20 24 11 13 1013.0 1012.3 0.0
23/06:30pm 37.5 31.8 -0.7 9 19.1 W 19 26 10 14 1012.8 1012.1 0.0
23/06:00pm 38.2 31.6 -0.2 9 19.4 W 24 32 13 17 1012.7 1012.0 0.0
23/05:30pm 37.9 32.2 -0.4 9 19.3 W 19 32 10 17 1012.7 1012.0 0.0
23/05:00pm 38.2 32.0 -0.2 9 19.4 W 22 28 12 15 1012.6 1011.9 0.0
23/04:30pm 37.9 32.6 -0.4 9 19.3 W 17 30 9 16 1012.8 1012.1 0.0
23/04:00pm 38.5 32.9 1.5 10 19.3 W 20 24 11 13 1013.0 1012.3 0.0
23/03:30pm 37.9 34.0 1.0 10 19.0 W 11 19 6 10 1013.3 1012.6 0.0
23/03:03pm 38.6 31.5 1.6 10 19.3 W 28 35 15 19 1013.7 1013.1 0.0
23/03:00pm 37.7 35.1 0.9 10 18.9 NE 4 13 2 7 1013.8 1013.2 0.0
23/02:30pm 38.1 31.7 1.2 10 19.1 WSW 24 33 13 18 1014.2 1013.6 0.0
23/02:00pm 37.7 34.0 2.2 11 18.6 WNW 11 26 6 14 1014.7 1014.1 0.0
23/01:30pm 37.8 31.8 1.0 10 18.9 NW 22 32 12 17 1015.1 1014.5 0.0
23/01:00pm 37.0 29.2 1.7 11 18.3 WNW 32 46 17 25 1015.5 1014.9 0.0
23/12:30pm 37.0 30.7 1.7 11 18.3 WNW 24 35 13 19 1016.0 1015.4 0.0
23/12:00pm 36.2 29.3 2.3 12 17.6 WNW 28 43 15 23 1016.5 1015.8 0.0
23/11:30am 35.7 28.5 3.0 13 17.1 WNW 30 39 16 21 1016.8 1016.1 0.0
23/11:00am 35.1 27.6 4.6 15 16.3 WNW 33 44 18 24 1017.1 1016.4 0.0
23/10:30am 34.4 26.8 4.0 15 16.1 NW 33 46 18 25 1017.2 1016.5 0.0
23/10:00am 33.3 25.9 5.0 17 15.1 WNW 33 43 18 23 1017.2 1016.5 0.0
23/09:30am 32.3 25.2 5.7 19 14.3 NW 32 41 17 22 1017.1 1016.4 0.0
23/09:00am 31.1 25.3 6.2 21 13.4 NW 26 35 14 19 1017.0 1016.3 0.2
23/08:30am 29.2 24.0 7.2 25 11.9 NW 24 32 13 17 1016.8 1016.1 0.2
23/08:00am 27.3 22.9 7.2 28 10.8 NW 20 28 11 15 1016.8 1016.1 0.2
23/07:30am 26.1 21.3 7.2 30 10.1 NW 22 30 12 16 1016.7 1016.0 0.2
23/07:00am 26.0 21.6 7.6 31 9.8 NNW 20 28 11 15 1016.4 1015.7 0.2
23/06:30am 25.9 21.5 7.5 31 9.8 NNW 20 28 11 15 1016.3 1015.6 0.2
23/06:00am 25.4 21.6 7.5 32 9.5 NNW 17 20 9 11 1016.4 1015.7 0.2
23/05:30am 25.7 21.6 7.8 32 9.6 NNW 19 26 10 14 1016.0 1015.4 0.2
23/05:00am 25.7 21.0 7.8 32 9.6 NNW 22 28 12 15 1015.6 1015.0 0.2
23/04:30am 25.6 20.1 7.7 32 9.6 NNW 26 35 14 19 1015.5 1014.9 0.2
23/04:00am 25.3 19.9 7.9 33 9.3 NNW 26 35 14 19 1015.7 1015.1 0.2
23/03:30am 25.2 19.4 7.8 33 9.3 NNW 28 39 15 21 1016.0 1015.4 0.2
23/03:00am 25.5 19.7 8.1 33 9.4 NNW 28 39 15 21 1016.4 1015.7 0.2
23/02:30am 25.8 19.6 7.9 32 9.6 NNW 30 39 16 21 1016.5 1015.8 0.2
23/02:00am 25.7 20.0 8.2 33 9.4 NNW 28 39 15 21 1017.0 1016.3 0.2
23/01:30am 25.8 20.9 8.3 33 9.5 NNW 24 33 13 18 1017.4 1016.7 0.2
23/01:00am 25.7 21.7 8.2 33 9.4 NNW 19 24 10 13 1017.8 1017.1 0.2
23/12:30am 25.8 21.8 8.3 33 9.5 N 19 24 10 13 1018.1 1017.4 0.2
23/12:00am 26.0 22.5 8.9 34 9.4 N 17 20 9 11 1018.3 1017.6 0.2
 
Date/Time
EDT
Temp
°C
App
Temp
°C
Dew
Point
Rel
Hum
%
Delta-T
°C
Wind Press
QNH
hPa
Press
MSL
hPa
Rain
since 9 am
mm
Dir
 
Spd
km/h
Gust
km/h
Spd
kts
Gust
kts
22/11:30pm 26.7 22.6 8.6 32 9.9 N 20 28 11 15 1018.3 1017.6 0.2
22/11:00pm 26.9 22.7 8.4 31 10.1 N 20 28 11 15 1018.2 1017.5 0.2
22/10:30pm 27.3 22.3 8.2 30 10.4 N 24 32 13 17 1018.3 1017.6 0.2
22/10:00pm 27.5 22.6 8.4 30 10.4 N 24 32 13 17 1018.4 1017.7 0.2
22/09:30pm 27.8 22.4 8.1 29 10.8 NW 26 32 14 17 1018.8 1018.2 0.2
22/09:00pm 27.9 23.1 8.7 30 10.6 N 24 37 13 20 1017.7 1017.0 0.2
22/08:30pm 28.0 21.2 9.3 31 10.4 N 35 46 19 25 1017.2 1016.5 0.2
22/08:03pm 30.3 24.3 6.9 23 12.7 NE 28 52 15 28 1017.4 1016.7 0.2
22/08:00pm 30.5 25.3 5.7 21 13.2 NE 22 30 12 16 1017.5 1016.8 0.2
22/07:30pm 31.2 27.8 4.1 18 14.1 ENE 11 15 6 8 1016.7 1016.0 0.2
22/07:00pm 32.2 28.4 4.1 17 14.7 N 13 20 7 11 1016.4 1015.7 0.2
22/06:30pm 31.8 25.7 4.6 18 14.3 NE 26 35 14 19 1016.9 1016.2 0.2
22/06:03pm 31.7 24.2 4.5 18 14.3 NE 33 54 18 29 1016.0 1015.4 0.2
22/06:00pm 31.9 24.4 4.6 18 14.4 NE 33 44 18 24 1016.1 1015.5 0.2
22/05:37pm 30.1 22.4 7.3 24 12.4 ENE 37 56 20 30 1016.3 1015.6 0.2
22/05:32pm 30.1 23.8 7.3 24 12.4 ESE 30 56 16 30 1017.3 1016.6 0.2
22/05:30pm 31.4 25.5 5.8 20 13.7 ESE 26 37 14 20 1017.5 1016.8 0.2
22/05:27pm 30.9 24.8 6.7 22 13.1 SSE 28 39 15 21 1017.7 1017.0 0.2
22/05:00pm 30.0 26.3 7.8 25 12.2 SSW 17 20 9 11 1017.9 1017.2 0.2
22/04:51pm 30.0 24.3 8.4 26 12.0 S 28 35 15 19 1017.6 1016.9 0.2
22/04:30pm 31.8 22.8 4.6 18 14.3 SE 41 54 22 29 1017.0 1016.3 0.0
22/04:00pm 31.7 24.0 5.3 19 14.0 SE 35 57 19 31 1016.1 1015.5 0.0
22/03:56pm 32.5 25.7 5.1 18 14.6 SSE 30 52 16 28 1016.1 1015.5 0.0
22/03:55pm 33.2 26.6 4.0 16 15.3 SSE 28 43 15 23 1016.1 1015.5 0.0
22/03:30pm 36.3 31.1 -0.2 10 18.3 WSW 17 20 9 11 1015.8 1015.2 0.0
22/03:00pm 37.1 31.4 0.4 10 18.6 W 20 33 11 18 1016.1 1015.5 0.0
22/02:30pm 37.6 30.8 0.8 10 18.8 WNW 26 32 14 17 1016.4 1015.7 0.0
22/02:00pm 37.1 31.9 0.4 10 18.6 W 17 24 9 13 1017.1 1016.4 0.0
22/01:30pm 36.8 30.9 1.5 11 18.2 W 22 28 12 15 1017.8 1017.1 0.0
22/01:00pm 36.4 30.8 1.2 11 18.0 WNW 20 32 11 17 1018.2 1017.5 0.0
22/12:30pm 36.2 30.8 2.3 12 17.6 WNW 20 32 11 17 1018.6 1017.9 0.0
22/12:00pm 35.5 30.0 1.8 12 17.3 NW 20 30 11 16 1018.9 1018.3 0.0
22/11:30am 34.5 28.7 2.1 13 16.6 NNW 22 30 12 16 1019.4 1018.8 0.0

Other Formats:

Comma delimited format used in spreadsheet applications
http://www.bom.gov.au/fwo/IDN60801/IDN60801.95485.axf

JavaScript Object Notation format (JSON) in row-major order
http://www.bom.gov.au/fwo/IDN60801/IDN60801.95485.json